Bookmark and Share
Track history (hours):
 

Aransas Pass

More information available from US FCC via Universal Licensing System and Coast Guard Vessel Documentation Center.

Last reported at 2014-Apr-13 15:31 UTC. Time now 2014-Apr-21 07:29 UTC.
Position N 29°56' W 091°15'.

Length 26 m; draft 3 m.

Type: Towing. MMSI: 367458930.

NotesDate/timePositionNaut miles runAvg speedWind from/ knotsBaromVisibWave heightAir tempDewpointWater temp
2014-Apr-13 15:31N 29°56' W 091°15'2 2.1
2014-Apr-13 14:26N 29°54' W 091°13'3 3.9
2014-Apr-13 13:33N 29°51' W 091°12'4 4.4
2014-Apr-13 12:34N 29°47' W 091°11'4 4.1
2014-Apr-13 11:33N 29°43' W 091°13'5 4.9
2014-Apr-13 10:34N 29°39' W 091°16'4 4.2
2014-Apr-13 09:33N 29°38' W 091°21'5 5.2
2014-Apr-13 08:33N 29°40' W 091°26'5 4.7
2014-Apr-13 07:33N 29°42' W 091°31'3 2.7
2014-Apr-13 06:33N 29°44' W 091°34'  
2014-Apr-10 05:25N 29°28' W 094°51'6 7.0
2014-Apr-10 04:33N 29°33' W 094°55'8 7.0
2014-Apr-10 03:25N 29°40' W 094°59'6 6.1
2014-Apr-10 02:29N 29°44' W 095°03'3 3.1
2014-Apr-10 01:26N 29°46' W 095°07'1 1.2
2014-Apr-10 00:33N 29°45' W 095°06'2 0.2
2014-Apr-09 12:13N 29°44' W 095°08'2 3.2
2014-Apr-09 11:28N 29°45' W 095°06'2 1.2
2014-Apr-09 09:28N 29°44' W 095°08'0 0.0
2014-Apr-08 19:18N 29°44' W 095°08'1 1.2
2014-Apr-08 18:32N 29°44' W 095°07'1 0.6
2014-Apr-08 17:33N 29°45' W 095°06'0 0.1
2014-Apr-08 16:19N 29°45' W 095°07'0 0.0
2014-Apr-08 12:23N 29°45' W 095°07'2 0.1
2014-Apr-08 00:28N 29°46' W 095°06'4 4.6
2014-Apr-07 23:33N 29°44' W 095°02'7 7.3
2014-Apr-07 22:33N 29°37' W 094°58'8 7.8
2014-Apr-07 21:33N 29°31' W 094°53'  

Dump ship's entire track history

sailing weather and tide predictions

Aransas Pass — WDF5061 — position and weather